JAL319 RJTT-RJFF
Flight info
| Callsign | JAL319 |
|---|---|
| Flight time | 1h 30m |
| Altitude | 40000 |
| Route | TIARA LAYER GUSRO Y20 KIRIN |
| Aircraft | A359/H-SDE2E3GHIJ1J3J4J5LM1ORWXYZ/LB1D1 |
Departure
| Time | 2026-05-08 04:16 |
|---|---|
| Airport | Tokyo Haneda International Airport (RJTT) |
Arrival
| Time | 2026-05-08 05:46 |
|---|---|
| Airport | Fukuoka Airport (RJFF) |
| Time | Latitude | Longitude | Altitude | Speed | Heading |
|---|---|---|---|---|---|
| 2026-05-08 03:42 | 35.54531 | 139.78455 | 29 ft | 0 kts | 77° |
| 2026-05-08 04:03 | 35.54531 | 139.78454 | 29 ft | 1 kts | 77° |
| 2026-05-08 04:03 | 35.54528 | 139.78437 | 29 ft | 3 kts | 77° |
| 2026-05-08 04:04 | 35.54523 | 139.78412 | 29 ft | 3 kts | 77° |
| 2026-05-08 04:04 | 35.54520 | 139.78391 | 29 ft | 3 kts | 65° |
| 2026-05-08 04:04 | 35.54512 | 139.78375 | 26 ft | 3 kts | 36° |
| 2026-05-08 04:04 | 35.54500 | 139.78367 | 29 ft | 4 kts | 6° |
| 2026-05-08 04:05 | 35.54483 | 139.78367 | 28 ft | 4 kts | 339° |
| 2026-05-08 04:05 | 35.54474 | 139.78372 | 28 ft | 2 kts | 329° |
| 2026-05-08 04:09 | 35.54488 | 139.78361 | 30 ft | 7 kts | 329° |
| 2026-05-08 04:10 | 35.54558 | 139.78312 | 30 ft | 16 kts | 330° |
| 2026-05-08 04:10 | 35.54665 | 139.78236 | 30 ft | 19 kts | 329° |
| 2026-05-08 04:10 | 35.54787 | 139.78149 | 30 ft | 22 kts | 330° |
| 2026-05-08 04:10 | 35.54929 | 139.78049 | 29 ft | 25 kts | 330° |
| 2026-05-08 04:11 | 35.55084 | 139.77938 | 29 ft | 27 kts | 330° |
| 2026-05-08 04:11 | 35.55249 | 139.77821 | 28 ft | 29 kts | 330° |
| 2026-05-08 04:11 | 35.55421 | 139.77700 | 28 ft | 27 kts | 330° |
| 2026-05-08 04:11 | 35.55587 | 139.77582 | 28 ft | 29 kts | 330° |
| 2026-05-08 04:12 | 35.55766 | 139.77456 | 28 ft | 30 kts | 329° |
| 2026-05-08 04:12 | 35.55903 | 139.77359 | 30 ft | 11 kts | 331° |
| 2026-05-08 04:12 | 35.55966 | 139.77379 | 29 ft | 11 kts | 47° |
| 2026-05-08 04:12 | 35.56015 | 139.77479 | 29 ft | 17 kts | 60° |
| 2026-05-08 04:13 | 35.56086 | 139.77628 | 30 ft | 22 kts | 59° |
| 2026-05-08 04:13 | 35.56166 | 139.77797 | 31 ft | 24 kts | 60° |
| 2026-05-08 04:13 | 35.56253 | 139.77980 | 31 ft | 26 kts | 60° |
| 2026-05-08 04:13 | 35.56335 | 139.78153 | 30 ft | 21 kts | 60° |
| 2026-05-08 04:14 | 35.56406 | 139.78303 | 31 ft | 18 kts | 60° |
| 2026-05-08 04:14 | 35.56475 | 139.78448 | 32 ft | 21 kts | 60° |
| 2026-05-08 04:14 | 35.56538 | 139.78582 | 33 ft | 14 kts | 59° |
| 2026-05-08 04:14 | 35.56567 | 139.78652 | 36 ft | 7 kts | 76° |
| 2026-05-08 04:15 | 35.56548 | 139.78685 | 37 ft | 5 kts | 143° |
| 2026-05-08 04:15 | 35.56509 | 139.78712 | 37 ft | 10 kts | 150° |
| 2026-05-08 04:15 | 35.56325 | 139.78842 | 32 ft | 64 kts | 150° |
| 2026-05-08 04:15 | 35.55740 | 139.79257 | 34 ft | 130 kts | 150° |
| 2026-05-08 04:16 | 35.54827 | 139.79925 | 313 ft | 161 kts | 152° |
| 2026-05-08 04:16 | 35.53911 | 139.80637 | 1139 ft | 152 kts | 153° |
| 2026-05-08 04:16 | 35.53085 | 139.81439 | 1898 ft | 153 kts | 143° |
| 2026-05-08 04:16 | 35.52340 | 139.82462 | 2332 ft | 168 kts | 138° |
| 2026-05-08 04:17 | 35.51561 | 139.83553 | 2847 ft | 177 kts | 138° |
| 2026-05-08 04:17 | 35.50668 | 139.84726 | 3169 ft | 200 kts | 140° |
| 2026-05-08 04:17 | 35.49617 | 139.86026 | 3432 ft | 229 kts | 141° |
| 2026-05-08 04:17 | 35.48444 | 139.87488 | 3897 ft | 250 kts | 136° |
| 2026-05-08 04:18 | 35.47583 | 139.89428 | 4531 ft | 273 kts | 109° |
| 2026-05-08 04:18 | 35.47495 | 139.91811 | 5211 ft | 290 kts | 82° |
| 2026-05-08 04:18 | 35.48275 | 139.94120 | 6022 ft | 297 kts | 54° |
| 2026-05-08 04:18 | 35.49774 | 139.95859 | 6914 ft | 298 kts | 29° |
| 2026-05-08 04:19 | 35.51603 | 139.97090 | 7640 ft | 302 kts | 22° |
| 2026-05-08 04:19 | 35.53529 | 139.98177 | 8131 ft | 307 kts | 16° |
| 2026-05-08 04:19 | 35.55610 | 139.98673 | 8709 ft | 302 kts | 353° |
| 2026-05-08 04:19 | 35.57607 | 139.98115 | 9345 ft | 292 kts | 329° |
| 2026-05-08 04:20 | 35.59426 | 139.97030 | 9962 ft | 292 kts | 326° |
| 2026-05-08 04:20 | 35.60685 | 139.96369 | 10253 ft | 305 kts | 334° |
| 2026-05-08 04:20 | 35.62883 | 139.96050 | 10536 ft | 330 kts | 356° |
| 2026-05-08 04:20 | 35.65238 | 139.96204 | 10798 ft | 346 kts | 358° |
| 2026-05-08 04:21 | 35.67681 | 139.96398 | 11052 ft | 358 kts | 358° |
| 2026-05-08 04:21 | 35.70177 | 139.96329 | 11377 ft | 359 kts | 344° |
| 2026-05-08 04:21 | 35.72474 | 139.95292 | 11830 ft | 348 kts | 322° |
| 2026-05-08 04:21 | 35.74263 | 139.93371 | 12319 ft | 338 kts | 303° |
| 2026-05-08 04:22 | 35.75704 | 139.91090 | 12770 ft | 337 kts | 297° |
| 2026-05-08 04:22 | 35.76729 | 139.88535 | 13247 ft | 330 kts | 282° |
| 2026-05-08 04:22 | 35.77045 | 139.85780 | 13702 ft | 322 kts | 262° |
| 2026-05-08 04:22 | 35.76419 | 139.83177 | 14137 ft | 317 kts | 239° |
| 2026-05-08 04:23 | 35.75228 | 139.80890 | 14572 ft | 319 kts | 240° |
| 2026-05-08 04:23 | 35.74622 | 139.78251 | 15005 ft | 326 kts | 261° |
| 2026-05-08 04:23 | 35.74439 | 139.75456 | 15447 ft | 329 kts | 261° |
| 2026-05-08 04:23 | 35.74204 | 139.72657 | 15890 ft | 330 kts | 259° |
| 2026-05-08 04:24 | 35.73902 | 139.69849 | 16329 ft | 331 kts | 258° |
| 2026-05-08 04:24 | 35.73562 | 139.67032 | 16756 ft | 334 kts | 258° |
| 2026-05-08 04:24 | 35.73202 | 139.64208 | 17192 ft | 335 kts | 257° |
| 2026-05-08 04:24 | 35.72827 | 139.61363 | 17599 ft | 337 kts | 257° |
| 2026-05-08 04:25 | 35.72443 | 139.58500 | 18029 ft | 340 kts | 257° |
| 2026-05-08 04:25 | 35.72053 | 139.55621 | 18395 ft | 342 kts | 257° |
| 2026-05-08 04:25 | 35.71658 | 139.52721 | 18755 ft | 344 kts | 257° |
| 2026-05-08 04:25 | 35.71259 | 139.49810 | 19114 ft | 346 kts | 257° |
| 2026-05-08 04:26 | 35.70856 | 139.46873 | 19459 ft | 349 kts | 257° |
| 2026-05-08 04:26 | 35.70449 | 139.43917 | 19805 ft | 351 kts | 257° |
| 2026-05-08 04:26 | 35.70040 | 139.40950 | 20219 ft | 353 kts | 257° |
| 2026-05-08 04:26 | 35.69627 | 139.37966 | 20549 ft | 355 kts | 258° |
| 2026-05-08 04:27 | 35.69209 | 139.34951 | 20900 ft | 358 kts | 258° |
| 2026-05-08 04:27 | 35.68846 | 139.32334 | 21212 ft | 360 kts | 258° |
| 2026-05-08 04:27 | 35.68423 | 139.29294 | 21620 ft | 362 kts | 258° |
| 2026-05-08 04:27 | 35.67995 | 139.26225 | 22064 ft | 364 kts | 258° |
| 2026-05-08 04:28 | 35.67565 | 139.23140 | 22475 ft | 368 kts | 258° |
| 2026-05-08 04:28 | 35.67130 | 139.20021 | 22873 ft | 372 kts | 258° |
| 2026-05-08 04:28 | 35.66687 | 139.16871 | 23240 ft | 374 kts | 258° |
| 2026-05-08 04:28 | 35.66284 | 139.13705 | 23594 ft | 376 kts | 261° |
| 2026-05-08 04:29 | 35.66032 | 139.10540 | 23855 ft | 379 kts | 263° |
| 2026-05-08 04:29 | 35.65865 | 139.07293 | 24099 ft | 381 kts | 264° |
| 2026-05-08 04:29 | 35.65738 | 139.04029 | 24337 ft | 383 kts | 264° |
| 2026-05-08 04:29 | 35.65621 | 139.00752 | 24603 ft | 385 kts | 265° |
| 2026-05-08 04:30 | 35.65500 | 138.97455 | 24896 ft | 386 kts | 264° |
| 2026-05-08 04:30 | 35.65369 | 138.94152 | 25161 ft | 388 kts | 264° |
| 2026-05-08 04:30 | 35.65225 | 138.90829 | 25412 ft | 389 kts | 264° |
| 2026-05-08 04:30 | 35.65077 | 138.87507 | 25663 ft | 391 kts | 264° |
| 2026-05-08 04:31 | 35.64923 | 138.84167 | 25900 ft | 393 kts | 264° |
| 2026-05-08 04:31 | 35.64768 | 138.80798 | 26185 ft | 394 kts | 264° |
| 2026-05-08 04:31 | 35.64613 | 138.77433 | 26484 ft | 396 kts | 264° |
| 2026-05-08 04:31 | 35.64456 | 138.74049 | 26733 ft | 398 kts | 264° |
| 2026-05-08 04:32 | 35.64295 | 138.70645 | 26996 ft | 400 kts | 264° |
| 2026-05-08 04:32 | 35.64133 | 138.67220 | 27285 ft | 401 kts | 264° |
| 2026-05-08 04:32 | 35.63971 | 138.63790 | 27580 ft | 403 kts | 264° |
| 2026-05-08 04:32 | 35.63796 | 138.60341 | 27865 ft | 405 kts | 263° |
| 2026-05-08 04:33 | 35.63613 | 138.56878 | 28139 ft | 408 kts | 263° |
| 2026-05-08 04:33 | 35.63425 | 138.53385 | 28439 ft | 410 kts | 263° |
| 2026-05-08 04:33 | 35.63237 | 138.49879 | 28748 ft | 412 kts | 263° |
| 2026-05-08 04:33 | 35.63048 | 138.46363 | 29041 ft | 414 kts | 263° |
| 2026-05-08 04:34 | 35.62858 | 138.42819 | 29320 ft | 416 kts | 263° |
| 2026-05-08 04:34 | 35.62667 | 138.39268 | 29625 ft | 418 kts | 263° |
| 2026-05-08 04:34 | 35.62474 | 138.35691 | 29870 ft | 420 kts | 263° |
| 2026-05-08 04:34 | 35.62281 | 138.32101 | 30163 ft | 422 kts | 263° |
| 2026-05-08 04:35 | 35.62086 | 138.28493 | 30453 ft | 423 kts | 263° |
| 2026-05-08 04:35 | 35.61891 | 138.24882 | 30745 ft | 425 kts | 263° |
| 2026-05-08 04:35 | 35.61693 | 138.21238 | 31055 ft | 427 kts | 263° |
| 2026-05-08 04:35 | 35.61491 | 138.17597 | 31405 ft | 429 kts | 263° |
| 2026-05-08 04:36 | 35.61285 | 138.13935 | 31716 ft | 430 kts | 263° |
| 2026-05-08 04:36 | 35.61078 | 138.10262 | 32045 ft | 431 kts | 264° |
| 2026-05-08 04:36 | 35.60872 | 138.06585 | 32364 ft | 433 kts | 264° |
| 2026-05-08 04:36 | 35.60665 | 138.02886 | 32638 ft | 434 kts | 263° |
| 2026-05-08 04:37 | 35.60372 | 137.99187 | 32917 ft | 435 kts | 259° |
| 2026-05-08 04:37 | 35.59881 | 137.95553 | 33211 ft | 436 kts | 258° |
| 2026-05-08 04:37 | 35.59294 | 137.91900 | 33530 ft | 437 kts | 257° |
| 2026-05-08 04:37 | 35.58655 | 137.88241 | 33813 ft | 439 kts | 256° |
| 2026-05-08 04:38 | 35.57994 | 137.84575 | 34066 ft | 440 kts | 256° |
| 2026-05-08 04:38 | 35.57329 | 137.80889 | 34298 ft | 442 kts | 256° |
| 2026-05-08 04:38 | 35.56666 | 137.77198 | 34598 ft | 442 kts | 256° |
| 2026-05-08 04:38 | 35.56011 | 137.73516 | 34964 ft | 440 kts | 256° |
| 2026-05-08 04:39 | 35.55364 | 137.69846 | 35278 ft | 440 kts | 257° |
| 2026-05-08 04:39 | 35.54719 | 137.66167 | 35603 ft | 439 kts | 257° |
| 2026-05-08 04:39 | 35.54077 | 137.62506 | 35948 ft | 438 kts | 257° |
| 2026-05-08 04:39 | 35.53435 | 137.58855 | 36217 ft | 437 kts | 257° |
| 2026-05-08 04:40 | 35.52791 | 137.55202 | 36565 ft | 437 kts | 257° |
| 2026-05-08 04:40 | 35.52150 | 137.51560 | 36944 ft | 436 kts | 257° |
| 2026-05-08 04:40 | 35.51511 | 137.47936 | 37306 ft | 434 kts | 257° |
| 2026-05-08 04:40 | 35.50868 | 137.44313 | 37660 ft | 434 kts | 257° |
| 2026-05-08 04:41 | 35.50224 | 137.40694 | 37971 ft | 433 kts | 257° |
| 2026-05-08 04:41 | 35.49581 | 137.37090 | 38293 ft | 433 kts | 257° |
| 2026-05-08 04:41 | 35.48936 | 137.33479 | 38618 ft | 431 kts | 257° |
| 2026-05-08 04:41 | 35.48293 | 137.29886 | 38882 ft | 430 kts | 257° |
| 2026-05-08 04:42 | 35.47660 | 137.26349 | 39106 ft | 431 kts | 257° |
| 2026-05-08 04:42 | 35.47014 | 137.22760 | 39338 ft | 430 kts | 256° |
| 2026-05-08 04:42 | 35.46370 | 137.19180 | 39562 ft | 430 kts | 256° |
| 2026-05-08 04:42 | 35.45715 | 137.15539 | 39762 ft | 431 kts | 256° |
| 2026-05-08 04:43 | 35.44416 | 137.08339 | 39814 ft | 432 kts | 256° |
| 2026-05-08 04:43 | 35.43113 | 137.01144 | 39800 ft | 432 kts | 256° |
| 2026-05-08 04:44 | 35.41802 | 136.93933 | 39794 ft | 433 kts | 256° |
| 2026-05-08 04:44 | 35.40493 | 136.86765 | 39788 ft | 433 kts | 256° |
| 2026-05-08 04:45 | 35.39172 | 136.79554 | 39787 ft | 433 kts | 256° |
| 2026-05-08 04:45 | 35.37848 | 136.72342 | 39790 ft | 434 kts | 256° |
| 2026-05-08 04:46 | 35.36516 | 136.65123 | 39786 ft | 434 kts | 256° |
| 2026-05-08 04:46 | 35.35191 | 136.57962 | 39791 ft | 434 kts | 256° |
| 2026-05-08 04:47 | 35.33849 | 136.50737 | 39794 ft | 435 kts | 256° |
| 2026-05-08 04:47 | 35.32504 | 136.43518 | 39798 ft | 435 kts | 256° |
| 2026-05-08 04:48 | 35.31154 | 136.36299 | 39796 ft | 434 kts | 256° |
| 2026-05-08 04:48 | 35.29800 | 136.29089 | 39802 ft | 435 kts | 256° |
| 2026-05-08 04:49 | 35.28441 | 136.21878 | 39801 ft | 435 kts | 256° |
| 2026-05-08 04:49 | 35.27086 | 136.14709 | 39805 ft | 434 kts | 256° |
| 2026-05-08 04:50 | 35.25720 | 136.07505 | 39786 ft | 434 kts | 256° |
| 2026-05-08 04:50 | 35.24347 | 136.00294 | 39805 ft | 435 kts | 256° |
| 2026-05-08 04:51 | 35.22968 | 135.93072 | 39808 ft | 436 kts | 256° |
| 2026-05-08 04:51 | 35.21584 | 135.85852 | 39810 ft | 437 kts | 256° |
| 2026-05-08 04:52 | 35.20195 | 135.78619 | 39811 ft | 436 kts | 256° |
| 2026-05-08 04:52 | 35.18795 | 135.71393 | 39811 ft | 436 kts | 256° |
| 2026-05-08 04:53 | 35.17400 | 135.64176 | 39815 ft | 436 kts | 256° |
| 2026-05-08 04:53 | 35.16008 | 135.57004 | 39814 ft | 436 kts | 256° |
| 2026-05-08 04:54 | 35.14601 | 135.49784 | 39820 ft | 436 kts | 256° |
| 2026-05-08 04:54 | 35.13190 | 135.42572 | 39815 ft | 436 kts | 256° |
| 2026-05-08 04:55 | 35.11777 | 135.35377 | 39823 ft | 436 kts | 256° |
| 2026-05-08 04:55 | 35.10357 | 135.28167 | 39821 ft | 436 kts | 256° |
| 2026-05-08 04:56 | 35.08936 | 135.20959 | 39825 ft | 437 kts | 256° |
| 2026-05-08 04:56 | 35.07509 | 135.13765 | 39826 ft | 436 kts | 256° |
| 2026-05-08 04:57 | 35.06074 | 135.06557 | 39830 ft | 437 kts | 256° |
| 2026-05-08 04:57 | 35.04636 | 134.99352 | 39829 ft | 437 kts | 256° |
| 2026-05-08 04:58 | 35.03193 | 134.92147 | 39831 ft | 437 kts | 255° |
| 2026-05-08 04:58 | 35.01857 | 134.84896 | 39831 ft | 437 kts | 257° |
| 2026-05-08 04:59 | 35.00618 | 134.77620 | 39837 ft | 438 kts | 257° |
| 2026-05-08 04:59 | 34.99363 | 134.70352 | 39837 ft | 437 kts | 257° |
| 2026-05-08 05:00 | 34.98051 | 134.63158 | 39842 ft | 437 kts | 256° |
| 2026-05-08 05:00 | 34.96842 | 134.57121 | 39839 ft | 437 kts | 255° |
| 2026-05-08 05:01 | 34.95385 | 134.49955 | 39841 ft | 434 kts | 256° |
| 2026-05-08 05:01 | 34.93947 | 134.42780 | 39867 ft | 436 kts | 256° |
| 2026-05-08 05:02 | 34.92526 | 134.35628 | 39854 ft | 436 kts | 256° |
| 2026-05-08 05:02 | 34.91099 | 134.28447 | 39856 ft | 436 kts | 256° |
| 2026-05-08 05:03 | 34.89664 | 134.21271 | 39855 ft | 435 kts | 256° |
| 2026-05-08 05:03 | 34.88229 | 134.14131 | 39863 ft | 434 kts | 255° |
| 2026-05-08 05:04 | 34.86794 | 134.07006 | 39859 ft | 432 kts | 255° |
| 2026-05-08 05:04 | 34.85357 | 133.99900 | 39861 ft | 432 kts | 255° |
| 2026-05-08 05:05 | 34.83927 | 133.92848 | 39855 ft | 431 kts | 255° |
| 2026-05-08 05:05 | 34.82486 | 133.85766 | 39860 ft | 431 kts | 255° |
| 2026-05-08 05:06 | 34.81023 | 133.78685 | 39855 ft | 430 kts | 255° |
| 2026-05-08 05:06 | 34.79524 | 133.71630 | 39862 ft | 430 kts | 255° |
| 2026-05-08 05:07 | 34.78027 | 133.64594 | 39859 ft | 429 kts | 255° |
| 2026-05-08 05:07 | 34.76540 | 133.57597 | 39865 ft | 429 kts | 255° |
| 2026-05-08 05:08 | 34.75044 | 133.50563 | 39860 ft | 429 kts | 255° |
| 2026-05-08 05:08 | 34.73547 | 133.43541 | 39869 ft | 429 kts | 255° |
| 2026-05-08 05:09 | 34.72045 | 133.36526 | 39870 ft | 429 kts | 255° |
| 2026-05-08 05:09 | 34.70537 | 133.29502 | 39872 ft | 429 kts | 255° |
| 2026-05-08 05:10 | 34.68268 | 133.18970 | 39878 ft | 429 kts | 255° |
| 2026-05-08 05:11 | 34.66763 | 133.12016 | 39878 ft | 428 kts | 255° |
| 2026-05-08 05:11 | 34.65244 | 133.05013 | 39878 ft | 429 kts | 255° |
| 2026-05-08 05:12 | 34.63719 | 132.98005 | 39882 ft | 429 kts | 255° |
| 2026-05-08 05:12 | 34.62192 | 132.91009 | 39883 ft | 428 kts | 255° |
| 2026-05-08 05:13 | 34.60662 | 132.84019 | 39886 ft | 428 kts | 255° |
| 2026-05-08 05:13 | 34.59174 | 132.77242 | 39881 ft | 427 kts | 255° |
| 2026-05-08 05:14 | 34.57651 | 132.70325 | 39885 ft | 427 kts | 255° |
| 2026-05-08 05:14 | 34.56116 | 132.63380 | 39884 ft | 426 kts | 255° |
| 2026-05-08 05:15 | 34.54580 | 132.56447 | 39761 ft | 425 kts | 255° |
| 2026-05-08 05:15 | 34.53812 | 132.52983 | 39534 ft | 424 kts | 255° |
| 2026-05-08 05:15 | 34.53045 | 132.49535 | 39299 ft | 425 kts | 255° |
| 2026-05-08 05:15 | 34.52274 | 132.46071 | 39078 ft | 425 kts | 255° |
| 2026-05-08 05:16 | 34.51505 | 132.42619 | 38779 ft | 423 kts | 255° |
| 2026-05-08 05:16 | 34.50740 | 132.39180 | 38216 ft | 422 kts | 254° |
| 2026-05-08 05:16 | 34.49971 | 132.35743 | 37558 ft | 421 kts | 255° |
| 2026-05-08 05:16 | 34.49201 | 132.32313 | 36906 ft | 421 kts | 255° |
| 2026-05-08 05:17 | 34.48433 | 132.28898 | 36245 ft | 421 kts | 255° |
| 2026-05-08 05:17 | 34.47660 | 132.25467 | 35557 ft | 422 kts | 255° |
| 2026-05-08 05:17 | 34.46894 | 132.22071 | 34869 ft | 424 kts | 255° |
| 2026-05-08 05:17 | 34.46104 | 132.18570 | 34252 ft | 428 kts | 255° |
| 2026-05-08 05:18 | 34.45326 | 132.15134 | 33548 ft | 429 kts | 255° |
| 2026-05-08 05:18 | 34.44536 | 132.11641 | 33001 ft | 429 kts | 255° |
| 2026-05-08 05:18 | 34.43749 | 132.08159 | 32508 ft | 426 kts | 254° |
| 2026-05-08 05:18 | 34.42969 | 132.04709 | 32034 ft | 423 kts | 254° |
| 2026-05-08 05:19 | 34.42199 | 132.01300 | 31564 ft | 418 kts | 254° |
| 2026-05-08 05:19 | 34.41435 | 131.97925 | 31093 ft | 413 kts | 254° |
| 2026-05-08 05:19 | 34.40671 | 131.94574 | 30628 ft | 410 kts | 254° |
| 2026-05-08 05:19 | 34.39913 | 131.91258 | 30164 ft | 407 kts | 254° |
| 2026-05-08 05:20 | 34.39159 | 131.87967 | 29660 ft | 403 kts | 254° |
| 2026-05-08 05:20 | 34.38413 | 131.84710 | 29196 ft | 399 kts | 254° |
| 2026-05-08 05:20 | 34.37676 | 131.81490 | 28746 ft | 395 kts | 254° |
| 2026-05-08 05:20 | 34.36942 | 131.78292 | 28293 ft | 392 kts | 254° |
| 2026-05-08 05:21 | 34.36215 | 131.75132 | 27848 ft | 388 kts | 254° |
| 2026-05-08 05:21 | 34.35496 | 131.71998 | 27406 ft | 385 kts | 254° |
| 2026-05-08 05:21 | 34.34780 | 131.68887 | 26966 ft | 382 kts | 254° |
| 2026-05-08 05:21 | 34.34076 | 131.65831 | 26538 ft | 380 kts | 254° |
| 2026-05-08 05:22 | 34.33370 | 131.62769 | 26104 ft | 376 kts | 254° |
| 2026-05-08 05:22 | 34.32669 | 131.59732 | 25694 ft | 374 kts | 254° |
| 2026-05-08 05:22 | 34.31970 | 131.56711 | 25273 ft | 371 kts | 254° |
| 2026-05-08 05:22 | 34.31276 | 131.53722 | 24855 ft | 369 kts | 254° |
| 2026-05-08 05:23 | 34.30586 | 131.50748 | 24439 ft | 366 kts | 254° |
| 2026-05-08 05:23 | 34.29901 | 131.47797 | 24023 ft | 363 kts | 254° |
| 2026-05-08 05:23 | 34.29219 | 131.44868 | 23605 ft | 360 kts | 254° |
| 2026-05-08 05:23 | 34.28541 | 131.41963 | 23163 ft | 357 kts | 254° |
| 2026-05-08 05:24 | 34.27870 | 131.39087 | 22737 ft | 354 kts | 254° |
| 2026-05-08 05:24 | 34.27201 | 131.36222 | 22337 ft | 352 kts | 255° |
| 2026-05-08 05:24 | 34.26537 | 131.33376 | 21937 ft | 351 kts | 255° |
| 2026-05-08 05:24 | 34.25875 | 131.30540 | 21537 ft | 349 kts | 255° |
| 2026-05-08 05:25 | 34.25215 | 131.27722 | 21134 ft | 347 kts | 255° |
| 2026-05-08 05:25 | 34.24559 | 131.24925 | 20750 ft | 345 kts | 255° |
| 2026-05-08 05:25 | 34.23921 | 131.22210 | 20361 ft | 344 kts | 255° |
| 2026-05-08 05:25 | 34.23269 | 131.19432 | 19976 ft | 343 kts | 255° |
| 2026-05-08 05:26 | 34.22621 | 131.16669 | 19587 ft | 340 kts | 255° |
| 2026-05-08 05:26 | 34.21977 | 131.13933 | 19201 ft | 338 kts | 255° |
| 2026-05-08 05:26 | 34.21332 | 131.11201 | 18813 ft | 337 kts | 255° |
| 2026-05-08 05:26 | 34.20626 | 131.08516 | 18466 ft | 336 kts | 250° |
| 2026-05-08 05:27 | 34.19596 | 131.05981 | 17981 ft | 336 kts | 243° |
| 2026-05-08 05:27 | 34.18398 | 131.03568 | 17352 ft | 335 kts | 242° |
| 2026-05-08 05:27 | 34.17196 | 131.01181 | 16804 ft | 332 kts | 242° |
| 2026-05-08 05:27 | 34.15995 | 130.98801 | 16208 ft | 331 kts | 242° |
| 2026-05-08 05:28 | 34.14795 | 130.96418 | 15592 ft | 331 kts | 242° |
| 2026-05-08 05:28 | 34.13602 | 130.94039 | 15065 ft | 329 kts | 242° |
| 2026-05-08 05:28 | 34.12421 | 130.91683 | 14564 ft | 327 kts | 242° |
| 2026-05-08 05:28 | 34.11224 | 130.89381 | 14437 ft | 318 kts | 243° |
| 2026-05-08 05:29 | 34.10013 | 130.87205 | 14251 ft | 307 kts | 242° |
| 2026-05-08 05:29 | 34.08811 | 130.85073 | 13642 ft | 308 kts | 242° |
| 2026-05-08 05:29 | 34.07601 | 130.82917 | 12900 ft | 312 kts | 242° |
| 2026-05-08 05:29 | 34.06388 | 130.80747 | 12281 ft | 312 kts | 242° |
| 2026-05-08 05:30 | 34.05181 | 130.78581 | 11980 ft | 311 kts | 242° |
| 2026-05-08 05:30 | 34.03972 | 130.76406 | 11617 ft | 312 kts | 242° |
| 2026-05-08 05:30 | 34.02766 | 130.74234 | 11217 ft | 312 kts | 242° |
| 2026-05-08 05:30 | 34.01559 | 130.72058 | 10802 ft | 311 kts | 242° |
| 2026-05-08 05:31 | 34.00365 | 130.69908 | 10439 ft | 304 kts | 242° |
| 2026-05-08 05:31 | 33.99223 | 130.67864 | 10283 ft | 290 kts | 242° |
| 2026-05-08 05:31 | 33.98111 | 130.65901 | 10159 ft | 277 kts | 242° |
| 2026-05-08 05:31 | 33.97038 | 130.64027 | 10034 ft | 268 kts | 242° |
| 2026-05-08 05:32 | 33.95989 | 130.62198 | 9779 ft | 263 kts | 242° |
| 2026-05-08 05:32 | 33.94944 | 130.60372 | 9274 ft | 265 kts | 242° |
| 2026-05-08 05:32 | 33.93905 | 130.58532 | 8804 ft | 266 kts | 242° |
| 2026-05-08 05:32 | 33.92873 | 130.56680 | 8338 ft | 267 kts | 242° |
| 2026-05-08 05:33 | 33.91850 | 130.54816 | 7897 ft | 266 kts | 242° |
| 2026-05-08 05:33 | 33.90835 | 130.52948 | 7447 ft | 267 kts | 242° |
| 2026-05-08 05:33 | 33.89832 | 130.51073 | 7039 ft | 266 kts | 242° |
| 2026-05-08 05:33 | 33.88838 | 130.49192 | 6634 ft | 266 kts | 242° |
| 2026-05-08 05:34 | 33.87848 | 130.47300 | 6155 ft | 268 kts | 242° |
| 2026-05-08 05:34 | 33.86859 | 130.45402 | 5724 ft | 268 kts | 242° |
| 2026-05-08 05:34 | 33.85888 | 130.43564 | 5442 ft | 250 kts | 242° |
| 2026-05-08 05:34 | 33.84989 | 130.41886 | 5178 ft | 232 kts | 243° |
| 2026-05-08 05:35 | 33.84404 | 130.40153 | 4831 ft | 213 kts | 265° |
| 2026-05-08 05:35 | 33.84234 | 130.38426 | 4379 ft | 205 kts | 271° |
| 2026-05-08 05:35 | 33.84142 | 130.36748 | 3940 ft | 204 kts | 271° |
| 2026-05-08 05:35 | 33.84070 | 130.35055 | 3712 ft | 200 kts | 272° |
| 2026-05-08 05:36 | 33.84002 | 130.33395 | 3482 ft | 198 kts | 272° |
| 2026-05-08 05:36 | 33.83936 | 130.31754 | 3238 ft | 196 kts | 271° |
| 2026-05-08 05:36 | 33.83844 | 130.30122 | 3014 ft | 197 kts | 265° |
| 2026-05-08 05:36 | 33.83234 | 130.28615 | 2994 ft | 206 kts | 237° |
| 2026-05-08 05:37 | 33.82190 | 130.27417 | 2980 ft | 209 kts | 224° |
| 2026-05-08 05:37 | 33.81033 | 130.26358 | 2986 ft | 210 kts | 222° |
| 2026-05-08 05:37 | 33.79835 | 130.25343 | 2974 ft | 213 kts | 216° |
| 2026-05-08 05:37 | 33.78409 | 130.24759 | 2839 ft | 223 kts | 196° |
| 2026-05-08 05:38 | 33.76872 | 130.24452 | 2592 ft | 222 kts | 192° |
| 2026-05-08 05:38 | 33.75356 | 130.24208 | 2397 ft | 220 kts | 187° |
| 2026-05-08 05:38 | 33.73868 | 130.24480 | 2237 ft | 211 kts | 166° |
| 2026-05-08 05:38 | 33.72543 | 130.25156 | 2018 ft | 203 kts | 154° |
| 2026-05-08 05:39 | 33.71311 | 130.25989 | 1965 ft | 203 kts | 152° |
| 2026-05-08 05:39 | 33.70104 | 130.26833 | 1809 ft | 199 kts | 152° |
| 2026-05-08 05:39 | 33.68904 | 130.27668 | 1787 ft | 200 kts | 152° |
| 2026-05-08 05:39 | 33.67752 | 130.28598 | 1782 ft | 202 kts | 139° |
| 2026-05-08 05:40 | 33.66835 | 130.29868 | 1712 ft | 200 kts | 127° |
| 2026-05-08 05:40 | 33.66045 | 130.31248 | 1529 ft | 201 kts | 122° |
| 2026-05-08 05:40 | 33.65291 | 130.32660 | 1480 ft | 201 kts | 122° |
| 2026-05-08 05:40 | 33.64521 | 130.34077 | 1475 ft | 203 kts | 124° |
| 2026-05-08 05:41 | 33.63474 | 130.35168 | 1496 ft | 202 kts | 155° |
| 2026-05-08 05:41 | 33.62183 | 130.35797 | 1479 ft | 199 kts | 165° |
| 2026-05-08 05:41 | 33.60867 | 130.36319 | 1485 ft | 197 kts | 166° |
| 2026-05-08 05:41 | 33.59616 | 130.36808 | 1499 ft | 185 kts | 165° |
| 2026-05-08 05:42 | 33.58408 | 130.37275 | 1481 ft | 181 kts | 166° |
| 2026-05-08 05:42 | 33.57218 | 130.37725 | 1484 ft | 178 kts | 166° |
| 2026-05-08 05:42 | 33.56034 | 130.38169 | 1497 ft | 179 kts | 167° |
| 2026-05-08 05:42 | 33.54862 | 130.38693 | 1485 ft | 181 kts | 161° |
| 2026-05-08 05:43 | 33.53694 | 130.39272 | 1495 ft | 178 kts | 161° |
| 2026-05-08 05:43 | 33.52613 | 130.39872 | 1475 ft | 164 kts | 151° |
| 2026-05-08 05:43 | 33.51944 | 130.40893 | 1522 ft | 155 kts | 108° |
| 2026-05-08 05:43 | 33.51772 | 130.42160 | 1450 ft | 155 kts | 85° |
| 2026-05-08 05:44 | 33.51989 | 130.43406 | 1406 ft | 153 kts | 62° |
| 2026-05-08 05:44 | 33.52487 | 130.44524 | 1185 ft | 152 kts | 53° |
| 2026-05-08 05:44 | 33.53042 | 130.45593 | 944 ft | 152 kts | 50° |
| 2026-05-08 05:44 | 33.53626 | 130.46625 | 834 ft | 143 kts | 44° |
| 2026-05-08 05:45 | 33.54371 | 130.47304 | 641 ft | 132 kts | 11° |
| 2026-05-08 05:45 | 33.55232 | 130.47371 | 584 ft | 122 kts | 344° |
| 2026-05-08 05:45 | 33.55988 | 130.46902 | 433 ft | 126 kts | 322° |
| 2026-05-08 05:45 | 33.56728 | 130.46352 | 247 ft | 124 kts | 330° |
| 2026-05-08 05:46 | 33.57459 | 130.45843 | 104 ft | 121 kts | 330° |
| 2026-05-08 05:46 | 33.58182 | 130.45347 | 41 ft | 112 kts | 330° |
| 2026-05-08 05:46 | 33.58708 | 130.44988 | 38 ft | 63 kts | 330° |
| 2026-05-08 05:46 | 33.58896 | 130.44861 | 35 ft | 33 kts | 330° |
| 2026-05-08 05:47 | 33.59095 | 130.44776 | 30 ft | 27 kts | 352° |
| 2026-05-08 05:47 | 33.59241 | 130.44767 | 28 ft | 14 kts | 0° |
| 2026-05-08 05:47 | 33.59334 | 130.44767 | 31 ft | 10 kts | 360° |
| 2026-05-08 05:47 | 33.59394 | 130.44780 | 31 ft | 8 kts | 31° |
| 2026-05-08 05:48 | 33.59453 | 130.44800 | 31 ft | 10 kts | 349° |
| 2026-05-08 05:48 | 33.59510 | 130.44767 | 31 ft | 6 kts | 331° |
| 2026-05-08 05:48 | 33.59550 | 130.44763 | 31 ft | 6 kts | 24° |
| 2026-05-08 05:48 | 33.59578 | 130.44806 | 31 ft | 5 kts | 58° |
| 2026-05-08 05:49 | 33.59588 | 130.44826 | 31 ft | 0 kts | 59° |